
<gpx xmlns="http://www.topografix.com/GPX/1/1" xmlns:gpxx="http://www.garmin.com/xmlschemas/GpxExtensions/v3" xmlns:xsi="http://www.w3.org/2001/XMLSchema-instance" version="1.1" creator="Adze - http://kobotsw.com/apps/adze" xsi:schemaLocation="http://www.topografix.com/GPX/1/1 http://www.topografix.com/GPX/1/1/gpx.xsd http://www.garmin.com/xmlschemas/GpxExtensions/v3 http://www.garmin.com/xmlschemas/GpxExtensionsv3.xsd">
    <metadata>
        <name>Untitled Document</name>
        <link href="http://www.garmin.com"></link>
        <time>2018-02-26T03:59:51.636Z</time>
    </metadata>
    <wpt lon="99.625685" lat="13.459868">
        <ele>73.000000</ele>
        <name>DragonHillsHotel</name>
        <cmt>29-MAR-14 12:43:05</cmt>
        <desc>29-MAR-14 12:43:05</desc>
        <sym>Lodging</sym>
        <extensions>
            <gpxx:WaypointExtension xmlns:gpxx="http://www.garmin.com/xmlschemas/GpxExtensions/v3">
                <gpxx:DisplayMode>SymbolAndName</gpxx:DisplayMode>
            </gpxx:WaypointExtension>
        </extensions>
    </wpt>
    <wpt lon="99.575879" lat="13.447873">
        <ele>129.000000</ele>
        <time>2015-08-29T08:31:29Z</time>
        <name>Water Sat</name>
        <sym>Drinking Water</sym>
        <extensions>
            <gpxx:WaypointExtension xmlns:gpxx="http://www.garmin.com/xmlschemas/GpxExtensions/v3">
                <gpxx:DisplayMode>SymbolOnly</gpxx:DisplayMode>
            </gpxx:WaypointExtension>
        </extensions>
    </wpt>
    <trk>
        <name>Saturday</name>
        <extensions>
            <gpxx:TrackExtension xmlns:gpxx="http://www.garmin.com/xmlschemas/GpxExtensions/v3">
                <gpxx:DisplayColor>Red</gpxx:DisplayColor>
            </gpxx:TrackExtension>
        </extensions>
        <trkseg>
            <trkpt lon="99.626257" lat="13.460564">
                <ele>83.200000</ele>
                <time>2015-08-29T06:48:49Z</time>
            </trkpt>
            <trkpt lon="99.625414" lat="13.460364">
                <ele>84.000000</ele>
                <time>2015-08-29T06:49:19Z</time>
            </trkpt>
            <trkpt lon="99.625244" lat="13.460630">
                <ele>84.800000</ele>
                <time>2015-08-29T06:49:31Z</time>
            </trkpt>
            <trkpt lon="99.624965" lat="13.461315">
                <ele>83.200000</ele>
                <time>2015-08-29T06:50:48Z</time>
            </trkpt>
            <trkpt lon="99.622900" lat="13.461581">
                <ele>84.200000</ele>
                <time>2015-08-29T06:51:57Z</time>
            </trkpt>
            <trkpt lon="99.620924" lat="13.461326">
                <ele>85.200000</ele>
                <time>2015-08-29T06:52:41Z</time>
            </trkpt>
            <trkpt lon="99.619682" lat="13.461117">
                <ele>85.400000</ele>
                <time>2015-08-29T06:53:07Z</time>
            </trkpt>
            <trkpt lon="99.618975" lat="13.461522">
                <ele>87.400000</ele>
                <time>2015-08-29T06:53:23Z</time>
            </trkpt>
            <trkpt lon="99.616686" lat="13.463092">
                <ele>87.600000</ele>
                <time>2015-08-29T06:54:15Z</time>
            </trkpt>
            <trkpt lon="99.615979" lat="13.463351">
                <ele>89.000000</ele>
                <time>2015-08-29T06:54:29Z</time>
            </trkpt>
            <trkpt lon="99.615612" lat="13.463366">
                <ele>88.400000</ele>
                <time>2015-08-29T06:54:36Z</time>
            </trkpt>
            <trkpt lon="99.614304" lat="13.463323">
                <ele>89.600000</ele>
                <time>2015-08-29T06:55:04Z</time>
            </trkpt>
            <trkpt lon="99.612188" lat="13.463329">
                <ele>90.000000</ele>
                <time>2015-08-29T06:55:47Z</time>
            </trkpt>
            <trkpt lon="99.611427" lat="13.463235">
                <ele>90.600000</ele>
                <time>2015-08-29T06:56:01Z</time>
            </trkpt>
            <trkpt lon="99.609483" lat="13.462372">
                <ele>93.400000</ele>
                <time>2015-08-29T06:56:46Z</time>
            </trkpt>
            <trkpt lon="99.607927" lat="13.461539">
                <ele>95.000000</ele>
                <time>2015-08-29T06:57:24Z</time>
            </trkpt>
            <trkpt lon="99.606022" lat="13.460862">
                <ele>97.200000</ele>
                <time>2015-08-29T06:58:06Z</time>
            </trkpt>
            <trkpt lon="99.604484" lat="13.460505">
                <ele>97.600000</ele>
                <time>2015-08-29T06:58:42Z</time>
            </trkpt>
            <trkpt lon="99.602975" lat="13.461320">
                <ele>99.000000</ele>
                <time>2015-08-29T06:59:21Z</time>
            </trkpt>
            <trkpt lon="99.602044" lat="13.462512">
                <ele>101.400000</ele>
                <time>2015-08-29T06:59:55Z</time>
            </trkpt>
            <trkpt lon="99.600945" lat="13.463993">
                <ele>101.400000</ele>
                <time>2015-08-29T07:00:36Z</time>
            </trkpt>
            <trkpt lon="99.598962" lat="13.464489">
                <ele>102.600000</ele>
                <time>2015-08-29T07:01:23Z</time>
            </trkpt>
            <trkpt lon="99.596427" lat="13.464787">
                <ele>106.200000</ele>
                <time>2015-08-29T07:02:24Z</time>
            </trkpt>
            <trkpt lon="99.595591" lat="13.464920">
                <ele>105.400000</ele>
                <time>2015-08-29T07:02:44Z</time>
            </trkpt>
            <trkpt lon="99.594827" lat="13.464758">
                <ele>106.800000</ele>
                <time>2015-08-29T07:03:05Z</time>
            </trkpt>
            <trkpt lon="99.594238" lat="13.464472">
                <ele>107.200000</ele>
                <time>2015-08-29T07:04:16Z</time>
            </trkpt>
            <trkpt lon="99.592804" lat="13.463755">
                <ele>106.000000</ele>
                <time>2015-08-29T07:05:06Z</time>
            </trkpt>
            <trkpt lon="99.592364" lat="13.463387">
                <ele>104.400000</ele>
                <time>2015-08-29T07:05:22Z</time>
            </trkpt>
            <trkpt lon="99.591451" lat="13.463866">
                <ele>100.800000</ele>
                <time>2015-08-29T07:05:41Z</time>
            </trkpt>
            <trkpt lon="99.590939" lat="13.463762">
                <ele>106.600000</ele>
                <time>2015-08-29T07:05:58Z</time>
            </trkpt>
            <trkpt lon="99.590325" lat="13.463720">
                <ele>106.000000</ele>
                <time>2015-08-29T07:06:20Z</time>
            </trkpt>
            <trkpt lon="99.589878" lat="13.463863">
                <ele>107.000000</ele>
                <time>2015-08-29T07:11:52Z</time>
            </trkpt>
            <trkpt lon="99.588073" lat="13.464435">
                <ele>107.400000</ele>
                <time>2015-08-29T07:12:36Z</time>
            </trkpt>
            <trkpt lon="99.587610" lat="13.464562">
                <ele>104.400000</ele>
                <time>2015-08-29T07:12:46Z</time>
            </trkpt>
            <trkpt lon="99.587456" lat="13.464356">
                <ele>106.200000</ele>
                <time>2015-08-29T07:13:00Z</time>
            </trkpt>
            <trkpt lon="99.587222" lat="13.464284">
                <ele>106.600000</ele>
                <time>2015-08-29T07:13:08Z</time>
            </trkpt>
            <trkpt lon="99.587146" lat="13.464280">
                <ele>106.200000</ele>
                <time>2015-08-29T07:13:10Z</time>
            </trkpt>
            <trkpt lon="99.586181" lat="13.464720">
                <ele>105.200000</ele>
                <time>2015-08-29T07:13:30Z</time>
            </trkpt>
            <trkpt lon="99.585925" lat="13.464793">
                <ele>103.200000</ele>
                <time>2015-08-29T07:13:35Z</time>
            </trkpt>
            <trkpt lon="99.585308" lat="13.464027">
                <ele>110.200000</ele>
                <time>2015-08-29T07:14:05Z</time>
            </trkpt>
            <trkpt lon="99.585260" lat="13.463677">
                <ele>111.000000</ele>
                <time>2015-08-29T07:14:16Z</time>
            </trkpt>
            <trkpt lon="99.585411" lat="13.462859">
                <ele>107.400000</ele>
                <time>2015-08-29T07:14:33Z</time>
            </trkpt>
            <trkpt lon="99.585194" lat="13.462151">
                <ele>110.800000</ele>
                <time>2015-08-29T07:14:50Z</time>
            </trkpt>
            <trkpt lon="99.584138" lat="13.462547">
                <ele>109.400000</ele>
                <time>2015-08-29T07:15:14Z</time>
            </trkpt>
            <trkpt lon="99.583828" lat="13.462967">
                <ele>113.800000</ele>
                <time>2015-08-29T07:15:31Z</time>
            </trkpt>
            <trkpt lon="99.583052" lat="13.463880">
                <ele>118.800000</ele>
                <time>2015-08-29T07:16:05Z</time>
            </trkpt>
            <trkpt lon="99.582876" lat="13.464275">
                <ele>118.000000</ele>
                <time>2015-08-29T07:16:17Z</time>
            </trkpt>
            <trkpt lon="99.582838" lat="13.464923">
                <ele>117.000000</ele>
                <time>2015-08-29T07:16:30Z</time>
            </trkpt>
            <trkpt lon="99.582928" lat="13.465843">
                <ele>111.600000</ele>
                <time>2015-08-29T07:16:47Z</time>
            </trkpt>
            <trkpt lon="99.582815" lat="13.466396">
                <ele>107.800000</ele>
                <time>2015-08-29T07:16:55Z</time>
            </trkpt>
            <trkpt lon="99.582649" lat="13.466679">
                <ele>111.600000</ele>
                <time>2015-08-29T07:17:02Z</time>
            </trkpt>
            <trkpt lon="99.582549" lat="13.466857">
                <ele>111.400000</ele>
                <time>2015-08-29T07:17:07Z</time>
            </trkpt>
            <trkpt lon="99.582225" lat="13.467350">
                <ele>110.800000</ele>
                <time>2015-08-29T07:17:20Z</time>
            </trkpt>
            <trkpt lon="99.582188" lat="13.467554">
                <ele>113.600000</ele>
                <time>2015-08-29T07:17:26Z</time>
            </trkpt>
            <trkpt lon="99.582326" lat="13.467787">
                <ele>110.600000</ele>
                <time>2015-08-29T07:17:32Z</time>
            </trkpt>
            <trkpt lon="99.582312" lat="13.468213">
                <ele>109.200000</ele>
                <time>2015-08-29T07:17:39Z</time>
            </trkpt>
            <trkpt lon="99.582106" lat="13.469043">
                <ele>111.600000</ele>
                <time>2015-08-29T07:17:55Z</time>
            </trkpt>
            <trkpt lon="99.581795" lat="13.469818">
                <ele>109.000000</ele>
                <time>2015-08-29T07:18:09Z</time>
            </trkpt>
            <trkpt lon="99.581787" lat="13.470555">
                <ele>109.800000</ele>
                <time>2015-08-29T07:18:21Z</time>
            </trkpt>
            <trkpt lon="99.581968" lat="13.471069">
                <ele>107.800000</ele>
                <time>2015-08-29T07:18:37Z</time>
            </trkpt>
            <trkpt lon="99.581751" lat="13.470259">
                <ele>108.200000</ele>
                <time>2015-08-29T07:19:04Z</time>
            </trkpt>
            <trkpt lon="99.581840" lat="13.469618">
                <ele>109.800000</ele>
                <time>2015-08-29T07:19:19Z</time>
            </trkpt>
            <trkpt lon="99.581826" lat="13.469541">
                <ele>109.800000</ele>
                <time>2015-08-29T07:19:23Z</time>
            </trkpt>
            <trkpt lon="99.581776" lat="13.469902">
                <ele>108.600000</ele>
                <time>2015-08-29T07:19:35Z</time>
            </trkpt>
            <trkpt lon="99.581690" lat="13.469935">
                <ele>107.000000</ele>
                <time>2015-08-29T07:19:38Z</time>
            </trkpt>
            <trkpt lon="99.581049" lat="13.469679">
                <ele>111.800000</ele>
                <time>2015-08-29T07:20:03Z</time>
            </trkpt>
            <trkpt lon="99.580553" lat="13.469450">
                <ele>114.400000</ele>
                <time>2015-08-29T07:20:25Z</time>
            </trkpt>
            <trkpt lon="99.579983" lat="13.469226">
                <ele>112.600000</ele>
                <time>2015-08-29T07:20:43Z</time>
            </trkpt>
            <trkpt lon="99.578976" lat="13.468861">
                <ele>124.800000</ele>
                <time>2015-08-29T07:21:28Z</time>
            </trkpt>
            <trkpt lon="99.578631" lat="13.468717">
                <ele>127.600000</ele>
                <time>2015-08-29T07:21:45Z</time>
            </trkpt>
            <trkpt lon="99.578520" lat="13.468706">
                <ele>128.800000</ele>
                <time>2015-08-29T07:21:51Z</time>
            </trkpt>
            <trkpt lon="99.578259" lat="13.469269">
                <ele>127.800000</ele>
                <time>2015-08-29T07:22:06Z</time>
            </trkpt>
            <trkpt lon="99.578193" lat="13.469938">
                <ele>129.600000</ele>
                <time>2015-08-29T07:22:28Z</time>
            </trkpt>
            <trkpt lon="99.578273" lat="13.470468">
                <ele>126.200000</ele>
                <time>2015-08-29T07:22:38Z</time>
            </trkpt>
            <trkpt lon="99.578328" lat="13.470734">
                <ele>122.400000</ele>
                <time>2015-08-29T07:22:42Z</time>
            </trkpt>
            <trkpt lon="99.578229" lat="13.470965">
                <ele>129.600000</ele>
                <time>2015-08-29T07:22:49Z</time>
            </trkpt>
            <trkpt lon="99.578168" lat="13.471067">
                <ele>130.400000</ele>
                <time>2015-08-29T07:22:55Z</time>
            </trkpt>
            <trkpt lon="99.578299" lat="13.471595">
                <ele>127.000000</ele>
                <time>2015-08-29T07:23:06Z</time>
            </trkpt>
            <trkpt lon="99.578202" lat="13.471942">
                <ele>132.200000</ele>
                <time>2015-08-29T07:23:22Z</time>
            </trkpt>
            <trkpt lon="99.578203" lat="13.471990">
                <ele>132.200000</ele>
                <time>2015-08-29T07:23:24Z</time>
            </trkpt>
            <trkpt lon="99.578655" lat="13.472213">
                <ele>126.200000</ele>
                <time>2015-08-29T07:23:35Z</time>
            </trkpt>
            <trkpt lon="99.578465" lat="13.473167">
                <ele>127.600000</ele>
                <time>2015-08-29T07:23:59Z</time>
            </trkpt>
            <trkpt lon="99.579036" lat="13.473532">
                <ele>122.800000</ele>
                <time>2015-08-29T07:24:12Z</time>
            </trkpt>
            <trkpt lon="99.579909" lat="13.473387">
                <ele>118.800000</ele>
                <time>2015-08-29T07:24:30Z</time>
            </trkpt>
            <trkpt lon="99.580220" lat="13.473341">
                <ele>114.200000</ele>
                <time>2015-08-29T07:24:35Z</time>
            </trkpt>
            <trkpt lon="99.580669" lat="13.473422">
                <ele>113.400000</ele>
                <time>2015-08-29T07:24:42Z</time>
            </trkpt>
            <trkpt lon="99.580905" lat="13.473603">
                <ele>114.000000</ele>
                <time>2015-08-29T07:24:47Z</time>
            </trkpt>
            <trkpt lon="99.581144" lat="13.474123">
                <ele>105.200000</ele>
                <time>2015-08-29T07:24:56Z</time>
            </trkpt>
            <trkpt lon="99.580714" lat="13.474531">
                <ele>115.400000</ele>
                <time>2015-08-29T07:25:15Z</time>
            </trkpt>
            <trkpt lon="99.580504" lat="13.474713">
                <ele>112.200000</ele>
                <time>2015-08-29T07:25:23Z</time>
            </trkpt>
            <trkpt lon="99.579533" lat="13.474867">
                <ele>115.800000</ele>
                <time>2015-08-29T07:25:47Z</time>
            </trkpt>
            <trkpt lon="99.578574" lat="13.475301">
                <ele>121.600000</ele>
                <time>2015-08-29T07:26:23Z</time>
            </trkpt>
            <trkpt lon="99.578557" lat="13.475312">
                <ele>121.600000</ele>
                <time>2015-08-29T07:26:24Z</time>
            </trkpt>
            <trkpt lon="99.578465" lat="13.475826">
                <ele>115.200000</ele>
                <time>2015-08-29T07:26:37Z</time>
            </trkpt>
            <trkpt lon="99.578395" lat="13.475875">
                <ele>119.400000</ele>
                <time>2015-08-29T07:26:41Z</time>
            </trkpt>
            <trkpt lon="99.578272" lat="13.475936">
                <ele>120.200000</ele>
                <time>2015-08-29T07:26:47Z</time>
            </trkpt>
            <trkpt lon="99.577951" lat="13.475974">
                <ele>124.200000</ele>
                <time>2015-08-29T07:27:07Z</time>
            </trkpt>
            <trkpt lon="99.578398" lat="13.476379">
                <ele>116.400000</ele>
                <time>2015-08-29T07:27:20Z</time>
            </trkpt>
            <trkpt lon="99.578626" lat="13.476790">
                <ele>114.000000</ele>
                <time>2015-08-29T07:27:29Z</time>
            </trkpt>
            <trkpt lon="99.578610" lat="13.476869">
                <ele>111.200000</ele>
                <time>2015-08-29T07:27:33Z</time>
            </trkpt>
            <trkpt lon="99.577967" lat="13.477303">
                <ele>118.800000</ele>
                <time>2015-08-29T07:28:07Z</time>
            </trkpt>
            <trkpt lon="99.577385" lat="13.477656">
                <ele>120.400000</ele>
                <time>2015-08-29T07:28:30Z</time>
            </trkpt>
            <trkpt lon="99.576920" lat="13.477671">
                <ele>125.400000</ele>
                <time>2015-08-29T07:29:00Z</time>
            </trkpt>
            <trkpt lon="99.576738" lat="13.477832">
                <ele>129.000000</ele>
                <time>2015-08-29T07:29:18Z</time>
            </trkpt>
            <trkpt lon="99.575978" lat="13.478761">
                <ele>130.200000</ele>
                <time>2015-08-29T07:30:05Z</time>
            </trkpt>
            <trkpt lon="99.575875" lat="13.478936">
                <ele>127.800000</ele>
                <time>2015-08-29T07:30:12Z</time>
            </trkpt>
            <trkpt lon="99.575940" lat="13.479132">
                <ele>126.400000</ele>
                <time>2015-08-29T07:30:16Z</time>
            </trkpt>
            <trkpt lon="99.576109" lat="13.479164">
                <ele>128.800000</ele>
                <time>2015-08-29T07:30:22Z</time>
            </trkpt>
            <trkpt lon="99.576317" lat="13.479234">
                <ele>125.400000</ele>
                <time>2015-08-29T07:30:27Z</time>
            </trkpt>
            <trkpt lon="99.576464" lat="13.479654">
                <ele>127.800000</ele>
                <time>2015-08-29T07:30:41Z</time>
            </trkpt>
            <trkpt lon="99.576986" lat="13.480068">
                <ele>124.200000</ele>
                <time>2015-08-29T07:30:56Z</time>
            </trkpt>
            <trkpt lon="99.577240" lat="13.480403">
                <ele>121.200000</ele>
                <time>2015-08-29T07:31:03Z</time>
            </trkpt>
            <trkpt lon="99.577329" lat="13.481480">
                <ele>126.200000</ele>
                <time>2015-08-29T07:31:33Z</time>
            </trkpt>
            <trkpt lon="99.577143" lat="13.481934">
                <ele>132.200000</ele>
                <time>2015-08-29T07:31:57Z</time>
            </trkpt>
            <trkpt lon="99.577084" lat="13.482465">
                <ele>134.200000</ele>
                <time>2015-08-29T07:32:24Z</time>
            </trkpt>
            <trkpt lon="99.577199" lat="13.482829">
                <ele>137.600000</ele>
                <time>2015-08-29T07:32:47Z</time>
            </trkpt>
            <trkpt lon="99.577597" lat="13.483771">
                <ele>135.600000</ele>
                <time>2015-08-29T07:33:09Z</time>
            </trkpt>
            <trkpt lon="99.578341" lat="13.485027">
                <ele>131.800000</ele>
                <time>2015-08-29T07:33:38Z</time>
            </trkpt>
            <trkpt lon="99.578594" lat="13.485450">
                <ele>125.600000</ele>
                <time>2015-08-29T07:33:48Z</time>
            </trkpt>
            <trkpt lon="99.578768" lat="13.485985">
                <ele>120.600000</ele>
                <time>2015-08-29T07:33:56Z</time>
            </trkpt>
            <trkpt lon="99.578802" lat="13.487251">
                <ele>116.000000</ele>
                <time>2015-08-29T07:34:12Z</time>
            </trkpt>
            <trkpt lon="99.578804" lat="13.487386">
                <ele>114.600000</ele>
                <time>2015-08-29T07:34:14Z</time>
            </trkpt>
            <trkpt lon="99.578721" lat="13.487727">
                <ele>118.200000</ele>
                <time>2015-08-29T07:34:20Z</time>
            </trkpt>
            <trkpt lon="99.578665" lat="13.487935">
                <ele>118.200000</ele>
                <time>2015-08-29T07:34:25Z</time>
            </trkpt>
            <trkpt lon="99.578644" lat="13.488030">
                <ele>115.400000</ele>
                <time>2015-08-29T07:34:27Z</time>
            </trkpt>
            <trkpt lon="99.578570" lat="13.488247">
                <ele>113.800000</ele>
                <time>2015-08-29T07:34:31Z</time>
            </trkpt>
            <trkpt lon="99.578445" lat="13.488664">
                <ele>107.800000</ele>
                <time>2015-08-29T07:34:37Z</time>
            </trkpt>
            <trkpt lon="99.577757" lat="13.489583">
                <ele>105.400000</ele>
                <time>2015-08-29T07:34:52Z</time>
            </trkpt>
            <trkpt lon="99.577504" lat="13.490491">
                <ele>110.000000</ele>
                <time>2015-08-29T07:35:12Z</time>
            </trkpt>
            <trkpt lon="99.577346" lat="13.490700">
                <ele>109.400000</ele>
                <time>2015-08-29T07:35:21Z</time>
            </trkpt>
            <trkpt lon="99.576970" lat="13.490880">
                <ele>112.000000</ele>
                <time>2015-08-29T07:35:36Z</time>
            </trkpt>
            <trkpt lon="99.577052" lat="13.491288">
                <ele>109.400000</ele>
                <time>2015-08-29T07:35:45Z</time>
            </trkpt>
            <trkpt lon="99.577122" lat="13.491670">
                <ele>102.600000</ele>
                <time>2015-08-29T07:35:50Z</time>
            </trkpt>
            <trkpt lon="99.577079" lat="13.491936">
                <ele>101.000000</ele>
                <time>2015-08-29T07:35:54Z</time>
            </trkpt>
            <trkpt lon="99.576616" lat="13.492230">
                <ele>103.400000</ele>
                <time>2015-08-29T07:36:07Z</time>
            </trkpt>
            <trkpt lon="99.576133" lat="13.492678">
                <ele>101.000000</ele>
                <time>2015-08-29T07:36:20Z</time>
            </trkpt>
            <trkpt lon="99.575964" lat="13.492816">
                <ele>98.200000</ele>
                <time>2015-08-29T07:36:24Z</time>
            </trkpt>
            <trkpt lon="99.575482" lat="13.493103">
                <ele>98.400000</ele>
                <time>2015-08-29T07:36:34Z</time>
            </trkpt>
            <trkpt lon="99.575215" lat="13.493075">
                <ele>101.800000</ele>
                <time>2015-08-29T07:36:44Z</time>
            </trkpt>
            <trkpt lon="99.575097" lat="13.492922">
                <ele>105.200000</ele>
                <time>2015-08-29T07:36:55Z</time>
            </trkpt>
            <trkpt lon="99.574590" lat="13.492639">
                <ele>110.200000</ele>
                <time>2015-08-29T07:37:28Z</time>
            </trkpt>
            <trkpt lon="99.574420" lat="13.493374">
                <ele>101.400000</ele>
                <time>2015-08-29T07:37:44Z</time>
            </trkpt>
            <trkpt lon="99.574145" lat="13.493654">
                <ele>100.200000</ele>
                <time>2015-08-29T07:37:50Z</time>
            </trkpt>
            <trkpt lon="99.573629" lat="13.493381">
                <ele>106.200000</ele>
                <time>2015-08-29T07:38:06Z</time>
            </trkpt>
            <trkpt lon="99.573353" lat="13.493074">
                <ele>109.000000</ele>
                <time>2015-08-29T07:38:24Z</time>
            </trkpt>
            <trkpt lon="99.572971" lat="13.493132">
                <ele>110.800000</ele>
                <time>2015-08-29T07:38:43Z</time>
            </trkpt>
            <trkpt lon="99.572707" lat="13.493779">
                <ele>104.600000</ele>
                <time>2015-08-29T07:38:57Z</time>
            </trkpt>
            <trkpt lon="99.572493" lat="13.493897">
                <ele>103.600000</ele>
                <time>2015-08-29T07:39:01Z</time>
            </trkpt>
            <trkpt lon="99.572062" lat="13.493847">
                <ele>109.400000</ele>
                <time>2015-08-29T07:39:11Z</time>
            </trkpt>
            <trkpt lon="99.571899" lat="13.494135">
                <ele>108.400000</ele>
                <time>2015-08-29T07:39:21Z</time>
            </trkpt>
            <trkpt lon="99.571906" lat="13.494438">
                <ele>102.200000</ele>
                <time>2015-08-29T07:39:30Z</time>
            </trkpt>
            <trkpt lon="99.571504" lat="13.494585">
                <ele>107.600000</ele>
                <time>2015-08-29T07:39:49Z</time>
            </trkpt>
            <trkpt lon="99.571330" lat="13.495039">
                <ele>102.600000</ele>
                <time>2015-08-29T07:40:02Z</time>
            </trkpt>
            <trkpt lon="99.570986" lat="13.495369">
                <ele>104.600000</ele>
                <time>2015-08-29T07:40:16Z</time>
            </trkpt>
            <trkpt lon="99.570784" lat="13.495744">
                <ele>103.200000</ele>
                <time>2015-08-29T07:40:27Z</time>
            </trkpt>
            <trkpt lon="99.570599" lat="13.495973">
                <ele>100.000000</ele>
                <time>2015-08-29T07:40:33Z</time>
            </trkpt>
            <trkpt lon="99.570104" lat="13.496022">
                <ele>105.400000</ele>
                <time>2015-08-29T07:40:52Z</time>
            </trkpt>
            <trkpt lon="99.569337" lat="13.496491">
                <ele>101.400000</ele>
                <time>2015-08-29T07:41:13Z</time>
            </trkpt>
            <trkpt lon="99.568911" lat="13.496365">
                <ele>106.000000</ele>
                <time>2015-08-29T07:41:29Z</time>
            </trkpt>
            <trkpt lon="99.568652" lat="13.496355">
                <ele>105.400000</ele>
                <time>2015-08-29T07:41:38Z</time>
            </trkpt>
            <trkpt lon="99.568463" lat="13.496271">
                <ele>106.800000</ele>
                <time>2015-08-29T07:41:47Z</time>
            </trkpt>
            <trkpt lon="99.568161" lat="13.496294">
                <ele>107.000000</ele>
                <time>2015-08-29T07:41:58Z</time>
            </trkpt>
            <trkpt lon="99.567926" lat="13.496175">
                <ele>109.600000</ele>
                <time>2015-08-29T07:42:11Z</time>
            </trkpt>
            <trkpt lon="99.567217" lat="13.496073">
                <ele>106.200000</ele>
                <time>2015-08-29T07:42:32Z</time>
            </trkpt>
            <trkpt lon="99.567019" lat="13.496176">
                <ele>104.000000</ele>
                <time>2015-08-29T07:42:36Z</time>
            </trkpt>
            <trkpt lon="99.566514" lat="13.495928">
                <ele>98.000000</ele>
                <time>2015-08-29T07:42:45Z</time>
            </trkpt>
            <trkpt lon="99.566416" lat="13.495797">
                <ele>102.200000</ele>
                <time>2015-08-29T07:42:49Z</time>
            </trkpt>
            <trkpt lon="99.566401" lat="13.495556">
                <ele>104.200000</ele>
                <time>2015-08-29T07:43:00Z</time>
            </trkpt>
            <trkpt lon="99.566182" lat="13.495212">
                <ele>106.400000</ele>
                <time>2015-08-29T07:43:21Z</time>
            </trkpt>
            <trkpt lon="99.566122" lat="13.494914">
                <ele>110.600000</ele>
                <time>2015-08-29T07:43:37Z</time>
            </trkpt>
            <trkpt lon="99.565236" lat="13.494393">
                <ele>114.000000</ele>
                <time>2015-08-29T07:45:21Z</time>
            </trkpt>
            <trkpt lon="99.565334" lat="13.493804">
                <ele>123.000000</ele>
                <time>2015-08-29T07:46:06Z</time>
            </trkpt>
            <trkpt lon="99.564499" lat="13.493502">
                <ele>116.800000</ele>
                <time>2015-08-29T07:46:35Z</time>
            </trkpt>
            <trkpt lon="99.564393" lat="13.493407">
                <ele>115.000000</ele>
                <time>2015-08-29T07:46:38Z</time>
            </trkpt>
            <trkpt lon="99.564444" lat="13.492760">
                <ele>119.600000</ele>
                <time>2015-08-29T07:47:08Z</time>
            </trkpt>
            <trkpt lon="99.564144" lat="13.492732">
                <ele>116.000000</ele>
                <time>2015-08-29T07:47:18Z</time>
            </trkpt>
            <trkpt lon="99.564010" lat="13.492483">
                <ele>116.600000</ele>
                <time>2015-08-29T07:47:25Z</time>
            </trkpt>
            <trkpt lon="99.564006" lat="13.492454">
                <ele>116.400000</ele>
                <time>2015-08-29T07:47:26Z</time>
            </trkpt>
            <trkpt lon="99.564371" lat="13.491866">
                <ele>118.600000</ele>
                <time>2015-08-29T07:47:54Z</time>
            </trkpt>
            <trkpt lon="99.564205" lat="13.491629">
                <ele>114.400000</ele>
                <time>2015-08-29T07:48:02Z</time>
            </trkpt>
            <trkpt lon="99.563774" lat="13.491434">
                <ele>113.600000</ele>
                <time>2015-08-29T07:48:11Z</time>
            </trkpt>
            <trkpt lon="99.563753" lat="13.491370">
                <ele>112.600000</ele>
                <time>2015-08-29T07:48:14Z</time>
            </trkpt>
            <trkpt lon="99.563824" lat="13.491097">
                <ele>114.400000</ele>
                <time>2015-08-29T07:48:28Z</time>
            </trkpt>
            <trkpt lon="99.563849" lat="13.490857">
                <ele>112.600000</ele>
                <time>2015-08-29T07:48:40Z</time>
            </trkpt>
            <trkpt lon="99.564354" lat="13.490204">
                <ele>116.200000</ele>
                <time>2015-08-29T07:49:11Z</time>
            </trkpt>
            <trkpt lon="99.565278" lat="13.489440">
                <ele>127.800000</ele>
                <time>2015-08-29T07:50:17Z</time>
            </trkpt>
            <trkpt lon="99.565575" lat="13.488854">
                <ele>127.000000</ele>
                <time>2015-08-29T07:50:46Z</time>
            </trkpt>
            <trkpt lon="99.566335" lat="13.488627">
                <ele>134.800000</ele>
                <time>2015-08-29T07:51:43Z</time>
            </trkpt>
            <trkpt lon="99.566734" lat="13.488292">
                <ele>139.400000</ele>
                <time>2015-08-29T07:52:22Z</time>
            </trkpt>
            <trkpt lon="99.566909" lat="13.487472">
                <ele>142.800000</ele>
                <time>2015-08-29T07:53:11Z</time>
            </trkpt>
            <trkpt lon="99.567541" lat="13.487113">
                <ele>151.400000</ele>
                <time>2015-08-29T07:53:57Z</time>
            </trkpt>
            <trkpt lon="99.567359" lat="13.486732">
                <ele>146.800000</ele>
                <time>2015-08-29T07:54:11Z</time>
            </trkpt>
            <trkpt lon="99.567509" lat="13.486381">
                <ele>149.000000</ele>
                <time>2015-08-29T07:54:26Z</time>
            </trkpt>
            <trkpt lon="99.567543" lat="13.486159">
                <ele>145.200000</ele>
                <time>2015-08-29T07:54:37Z</time>
            </trkpt>
            <trkpt lon="99.566011" lat="13.486026">
                <ele>133.600000</ele>
                <time>2015-08-29T07:55:11Z</time>
            </trkpt>
            <trkpt lon="99.565401" lat="13.485518">
                <ele>129.600000</ele>
                <time>2015-08-29T07:55:28Z</time>
            </trkpt>
            <trkpt lon="99.564692" lat="13.484561">
                <ele>125.600000</ele>
                <time>2015-08-29T07:55:52Z</time>
            </trkpt>
            <trkpt lon="99.564901" lat="13.484269">
                <ele>130.400000</ele>
                <time>2015-08-29T07:56:22Z</time>
            </trkpt>
            <trkpt lon="99.565120" lat="13.483348">
                <ele>132.400000</ele>
                <time>2015-08-29T07:57:09Z</time>
            </trkpt>
            <trkpt lon="99.565447" lat="13.483156">
                <ele>133.600000</ele>
                <time>2015-08-29T07:57:27Z</time>
            </trkpt>
            <trkpt lon="99.565761" lat="13.482697">
                <ele>135.200000</ele>
                <time>2015-08-29T07:57:49Z</time>
            </trkpt>
            <trkpt lon="99.566281" lat="13.482708">
                <ele>140.400000</ele>
                <time>2015-08-29T07:58:21Z</time>
            </trkpt>
            <trkpt lon="99.566703" lat="13.482470">
                <ele>147.000000</ele>
                <time>2015-08-29T07:59:02Z</time>
            </trkpt>
            <trkpt lon="99.566709" lat="13.482425">
                <ele>147.000000</ele>
                <time>2015-08-29T07:59:06Z</time>
            </trkpt>
            <trkpt lon="99.566153" lat="13.482211">
                <ele>140.000000</ele>
                <time>2015-08-29T07:59:25Z</time>
            </trkpt>
            <trkpt lon="99.565859" lat="13.481901">
                <ele>137.800000</ele>
                <time>2015-08-29T07:59:34Z</time>
            </trkpt>
            <trkpt lon="99.565893" lat="13.481359">
                <ele>138.800000</ele>
                <time>2015-08-29T07:59:54Z</time>
            </trkpt>
            <trkpt lon="99.565582" lat="13.481208">
                <ele>133.800000</ele>
                <time>2015-08-29T08:00:05Z</time>
            </trkpt>
            <trkpt lon="99.565528" lat="13.480786">
                <ele>132.400000</ele>
                <time>2015-08-29T08:00:18Z</time>
            </trkpt>
            <trkpt lon="99.565606" lat="13.480363">
                <ele>126.800000</ele>
                <time>2015-08-29T08:00:28Z</time>
            </trkpt>
            <trkpt lon="99.565446" lat="13.480009">
                <ele>125.000000</ele>
                <time>2015-08-29T08:00:37Z</time>
            </trkpt>
            <trkpt lon="99.565644" lat="13.479833">
                <ele>129.800000</ele>
                <time>2015-08-29T08:00:50Z</time>
            </trkpt>
            <trkpt lon="99.566181" lat="13.479709">
                <ele>132.200000</ele>
                <time>2015-08-29T08:01:23Z</time>
            </trkpt>
            <trkpt lon="99.566451" lat="13.479149">
                <ele>133.400000</ele>
                <time>2015-08-29T08:01:52Z</time>
            </trkpt>
            <trkpt lon="99.566467" lat="13.478465">
                <ele>132.200000</ele>
                <time>2015-08-29T08:02:12Z</time>
            </trkpt>
            <trkpt lon="99.566925" lat="13.478333">
                <ele>134.000000</ele>
                <time>2015-08-29T08:02:34Z</time>
            </trkpt>
            <trkpt lon="99.566950" lat="13.477799">
                <ele>135.400000</ele>
                <time>2015-08-29T08:02:58Z</time>
            </trkpt>
            <trkpt lon="99.566784" lat="13.477347">
                <ele>130.800000</ele>
                <time>2015-08-29T08:03:11Z</time>
            </trkpt>
            <trkpt lon="99.567571" lat="13.476023">
                <ele>127.200000</ele>
                <time>2015-08-29T08:03:46Z</time>
            </trkpt>
            <trkpt lon="99.568032" lat="13.475931">
                <ele>132.800000</ele>
                <time>2015-08-29T08:04:13Z</time>
            </trkpt>
            <trkpt lon="99.568024" lat="13.475140">
                <ele>128.600000</ele>
                <time>2015-08-29T08:04:34Z</time>
            </trkpt>
            <trkpt lon="99.568361" lat="13.474739">
                <ele>132.000000</ele>
                <time>2015-08-29T08:04:57Z</time>
            </trkpt>
            <trkpt lon="99.568854" lat="13.474264">
                <ele>134.800000</ele>
                <time>2015-08-29T08:05:25Z</time>
            </trkpt>
            <trkpt lon="99.569253" lat="13.473582">
                <ele>136.200000</ele>
                <time>2015-08-29T08:05:54Z</time>
            </trkpt>
            <trkpt lon="99.569509" lat="13.472473">
                <ele>136.000000</ele>
                <time>2015-08-29T08:06:34Z</time>
            </trkpt>
            <trkpt lon="99.569974" lat="13.472181">
                <ele>141.400000</ele>
                <time>2015-08-29T08:07:06Z</time>
            </trkpt>
            <trkpt lon="99.569981" lat="13.472166">
                <ele>141.200000</ele>
                <time>2015-08-29T08:07:07Z</time>
            </trkpt>
            <trkpt lon="99.569990" lat="13.471457">
                <ele>139.400000</ele>
                <time>2015-08-29T08:07:28Z</time>
            </trkpt>
            <trkpt lon="99.569708" lat="13.470803">
                <ele>134.400000</ele>
                <time>2015-08-29T08:07:43Z</time>
            </trkpt>
            <trkpt lon="99.569964" lat="13.470173">
                <ele>141.600000</ele>
                <time>2015-08-29T08:08:14Z</time>
            </trkpt>
            <trkpt lon="99.569965" lat="13.470132">
                <ele>141.600000</ele>
                <time>2015-08-29T08:08:17Z</time>
            </trkpt>
            <trkpt lon="99.570320" lat="13.467652">
                <ele>135.800000</ele>
                <time>2015-08-29T08:09:23Z</time>
            </trkpt>
            <trkpt lon="99.569178" lat="13.466992">
                <ele>123.800000</ele>
                <time>2015-08-29T08:09:45Z</time>
            </trkpt>
            <trkpt lon="99.569165" lat="13.466748">
                <ele>123.200000</ele>
                <time>2015-08-29T08:09:55Z</time>
            </trkpt>
            <trkpt lon="99.569996" lat="13.465885">
                <ele>126.400000</ele>
                <time>2015-08-29T08:10:45Z</time>
            </trkpt>
            <trkpt lon="99.570228" lat="13.465572">
                <ele>125.400000</ele>
                <time>2015-08-29T08:10:57Z</time>
            </trkpt>
            <trkpt lon="99.570287" lat="13.465072">
                <ele>126.000000</ele>
                <time>2015-08-29T08:11:12Z</time>
            </trkpt>
            <trkpt lon="99.570874" lat="13.464170">
                <ele>128.200000</ele>
                <time>2015-08-29T08:11:45Z</time>
            </trkpt>
            <trkpt lon="99.571336" lat="13.464018">
                <ele>130.800000</ele>
                <time>2015-08-29T08:12:02Z</time>
            </trkpt>
            <trkpt lon="99.571737" lat="13.464144">
                <ele>136.000000</ele>
                <time>2015-08-29T08:12:26Z</time>
            </trkpt>
            <trkpt lon="99.572260" lat="13.464145">
                <ele>139.400000</ele>
                <time>2015-08-29T08:13:00Z</time>
            </trkpt>
            <trkpt lon="99.572567" lat="13.464027">
                <ele>141.200000</ele>
                <time>2015-08-29T08:13:19Z</time>
            </trkpt>
            <trkpt lon="99.572983" lat="13.463604">
                <ele>145.200000</ele>
                <time>2015-08-29T08:13:50Z</time>
            </trkpt>
            <trkpt lon="99.573221" lat="13.463328">
                <ele>145.400000</ele>
                <time>2015-08-29T08:14:03Z</time>
            </trkpt>
            <trkpt lon="99.573440" lat="13.462855">
                <ele>141.600000</ele>
                <time>2015-08-29T08:14:14Z</time>
            </trkpt>
            <trkpt lon="99.574054" lat="13.462329">
                <ele>145.200000</ele>
                <time>2015-08-29T08:14:35Z</time>
            </trkpt>
            <trkpt lon="99.574275" lat="13.462001">
                <ele>143.000000</ele>
                <time>2015-08-29T08:14:45Z</time>
            </trkpt>
            <trkpt lon="99.574225" lat="13.461810">
                <ele>141.000000</ele>
                <time>2015-08-29T08:14:49Z</time>
            </trkpt>
            <trkpt lon="99.573412" lat="13.461058">
                <ele>136.200000</ele>
                <time>2015-08-29T08:15:11Z</time>
            </trkpt>
            <trkpt lon="99.573551" lat="13.459542">
                <ele>140.800000</ele>
                <time>2015-08-29T08:15:58Z</time>
            </trkpt>
            <trkpt lon="99.573693" lat="13.458353">
                <ele>139.600000</ele>
                <time>2015-08-29T08:16:26Z</time>
            </trkpt>
            <trkpt lon="99.573594" lat="13.457582">
                <ele>140.800000</ele>
                <time>2015-08-29T08:16:42Z</time>
            </trkpt>
            <trkpt lon="99.573999" lat="13.457166">
                <ele>136.200000</ele>
                <time>2015-08-29T08:16:54Z</time>
            </trkpt>
            <trkpt lon="99.574095" lat="13.456882">
                <ele>136.800000</ele>
                <time>2015-08-29T08:16:59Z</time>
            </trkpt>
            <trkpt lon="99.574129" lat="13.456193">
                <ele>139.400000</ele>
                <time>2015-08-29T08:17:14Z</time>
            </trkpt>
            <trkpt lon="99.574101" lat="13.455671">
                <ele>138.600000</ele>
                <time>2015-08-29T08:17:26Z</time>
            </trkpt>
            <trkpt lon="99.574504" lat="13.452421">
                <ele>138.800000</ele>
                <time>2015-08-29T08:18:37Z</time>
            </trkpt>
            <trkpt lon="99.574845" lat="13.452272">
                <ele>137.000000</ele>
                <time>2015-08-29T08:18:46Z</time>
            </trkpt>
            <trkpt lon="99.576968" lat="13.452207">
                <ele>134.600000</ele>
                <time>2015-08-29T08:19:22Z</time>
            </trkpt>
            <trkpt lon="99.576602" lat="13.450471">
                <ele>135.400000</ele>
                <time>2015-08-29T08:20:03Z</time>
            </trkpt>
            <trkpt lon="99.576554" lat="13.449794">
                <ele>134.800000</ele>
                <time>2015-08-29T08:20:17Z</time>
            </trkpt>
            <trkpt lon="99.576607" lat="13.449200">
                <ele>134.000000</ele>
                <time>2015-08-29T08:20:30Z</time>
            </trkpt>
            <trkpt lon="99.575987" lat="13.448321">
                <ele>132.400000</ele>
                <time>2015-08-29T08:20:55Z</time>
            </trkpt>
            <trkpt lon="99.575787" lat="13.447864">
                <ele>133.400000</ele>
                <time>2015-08-29T08:21:08Z</time>
            </trkpt>
            <trkpt lon="99.575867" lat="13.447781">
                <ele>134.000000</ele>
                <time>2015-08-29T08:21:42Z</time>
            </trkpt>
            <trkpt lon="99.575867" lat="13.447922">
                <ele>138.400000</ele>
                <time>2015-08-29T08:38:54Z</time>
            </trkpt>
            <trkpt lon="99.575798" lat="13.447944">
                <ele>137.400000</ele>
                <time>2015-08-29T08:38:58Z</time>
            </trkpt>
            <trkpt lon="99.575619" lat="13.447640">
                <ele>142.000000</ele>
                <time>2015-08-29T08:39:17Z</time>
            </trkpt>
            <trkpt lon="99.575033" lat="13.445886">
                <ele>129.800000</ele>
                <time>2015-08-29T08:39:58Z</time>
            </trkpt>
            <trkpt lon="99.574148" lat="13.444731">
                <ele>135.200000</ele>
                <time>2015-08-29T08:40:42Z</time>
            </trkpt>
            <trkpt lon="99.572672" lat="13.444033">
                <ele>140.000000</ele>
                <time>2015-08-29T08:41:43Z</time>
            </trkpt>
            <trkpt lon="99.571861" lat="13.443635">
                <ele>137.400000</ele>
                <time>2015-08-29T08:42:07Z</time>
            </trkpt>
            <trkpt lon="99.571358" lat="13.443318">
                <ele>137.200000</ele>
                <time>2015-08-29T08:42:21Z</time>
            </trkpt>
            <trkpt lon="99.571121" lat="13.443062">
                <ele>132.800000</ele>
                <time>2015-08-29T08:42:27Z</time>
            </trkpt>
            <trkpt lon="99.571071" lat="13.441979">
                <ele>136.800000</ele>
                <time>2015-08-29T08:42:56Z</time>
            </trkpt>
            <trkpt lon="99.570774" lat="13.441300">
                <ele>140.000000</ele>
                <time>2015-08-29T08:43:26Z</time>
            </trkpt>
            <trkpt lon="99.570432" lat="13.440707">
                <ele>141.400000</ele>
                <time>2015-08-29T08:43:52Z</time>
            </trkpt>
            <trkpt lon="99.569660" lat="13.440857">
                <ele>144.200000</ele>
                <time>2015-08-29T08:44:28Z</time>
            </trkpt>
            <trkpt lon="99.569335" lat="13.440722">
                <ele>147.000000</ele>
                <time>2015-08-29T08:44:50Z</time>
            </trkpt>
            <trkpt lon="99.567977" lat="13.440753">
                <ele>149.200000</ele>
                <time>2015-08-29T08:45:49Z</time>
            </trkpt>
            <trkpt lon="99.567832" lat="13.441133">
                <ele>150.400000</ele>
                <time>2015-08-29T08:46:16Z</time>
            </trkpt>
            <trkpt lon="99.567593" lat="13.441315">
                <ele>153.200000</ele>
                <time>2015-08-29T08:46:34Z</time>
            </trkpt>
            <trkpt lon="99.567347" lat="13.441533">
                <ele>154.600000</ele>
                <time>2015-08-29T08:46:50Z</time>
            </trkpt>
            <trkpt lon="99.566147" lat="13.442344">
                <ele>156.600000</ele>
                <time>2015-08-29T08:47:52Z</time>
            </trkpt>
            <trkpt lon="99.565642" lat="13.442491">
                <ele>159.800000</ele>
                <time>2015-08-29T08:48:14Z</time>
            </trkpt>
            <trkpt lon="99.565397" lat="13.442575">
                <ele>159.600000</ele>
                <time>2015-08-29T08:48:25Z</time>
            </trkpt>
            <trkpt lon="99.564593" lat="13.442562">
                <ele>163.600000</ele>
                <time>2015-08-29T08:48:59Z</time>
            </trkpt>
            <trkpt lon="99.564233" lat="13.442554">
                <ele>163.000000</ele>
                <time>2015-08-29T08:49:14Z</time>
            </trkpt>
            <trkpt lon="99.564001" lat="13.442846">
                <ele>165.000000</ele>
                <time>2015-08-29T08:49:31Z</time>
            </trkpt>
            <trkpt lon="99.563693" lat="13.443010">
                <ele>168.600000</ele>
                <time>2015-08-29T08:49:54Z</time>
            </trkpt>
            <trkpt lon="99.562774" lat="13.443708">
                <ele>171.000000</ele>
                <time>2015-08-29T08:50:56Z</time>
            </trkpt>
            <trkpt lon="99.563200" lat="13.444391">
                <ele>184.800000</ele>
                <time>2015-08-29T08:52:29Z</time>
            </trkpt>
            <trkpt lon="99.563324" lat="13.444590">
                <ele>185.800000</ele>
                <time>2015-08-29T08:52:47Z</time>
            </trkpt>
            <trkpt lon="99.563175" lat="13.445012">
                <ele>177.600000</ele>
                <time>2015-08-29T08:53:06Z</time>
            </trkpt>
            <trkpt lon="99.562822" lat="13.445066">
                <ele>172.200000</ele>
                <time>2015-08-29T08:53:23Z</time>
            </trkpt>
            <trkpt lon="99.562785" lat="13.445555">
                <ele>165.600000</ele>
                <time>2015-08-29T08:53:38Z</time>
            </trkpt>
            <trkpt lon="99.562197" lat="13.445456">
                <ele>169.000000</ele>
                <time>2015-08-29T08:54:03Z</time>
            </trkpt>
            <trkpt lon="99.560629" lat="13.445207">
                <ele>171.400000</ele>
                <time>2015-08-29T08:55:15Z</time>
            </trkpt>
            <trkpt lon="99.560063" lat="13.445297">
                <ele>167.600000</ele>
                <time>2015-08-29T08:55:29Z</time>
            </trkpt>
            <trkpt lon="99.559410" lat="13.445239">
                <ele>156.800000</ele>
                <time>2015-08-29T08:55:51Z</time>
            </trkpt>
            <trkpt lon="99.559287" lat="13.445538">
                <ele>155.200000</ele>
                <time>2015-08-29T08:56:03Z</time>
            </trkpt>
            <trkpt lon="99.558995" lat="13.445669">
                <ele>152.400000</ele>
                <time>2015-08-29T08:56:10Z</time>
            </trkpt>
            <trkpt lon="99.558633" lat="13.446271">
                <ele>157.200000</ele>
                <time>2015-08-29T08:56:29Z</time>
            </trkpt>
            <trkpt lon="99.558006" lat="13.446628">
                <ele>156.600000</ele>
                <time>2015-08-29T08:56:49Z</time>
            </trkpt>
            <trkpt lon="99.557357" lat="13.446937">
                <ele>151.200000</ele>
                <time>2015-08-29T08:57:06Z</time>
            </trkpt>
            <trkpt lon="99.556987" lat="13.447501">
                <ele>154.600000</ele>
                <time>2015-08-29T08:57:22Z</time>
            </trkpt>
            <trkpt lon="99.555853" lat="13.448257">
                <ele>156.400000</ele>
                <time>2015-08-29T08:57:59Z</time>
            </trkpt>
            <trkpt lon="99.555697" lat="13.448373">
                <ele>155.800000</ele>
                <time>2015-08-29T08:58:05Z</time>
            </trkpt>
            <trkpt lon="99.555819" lat="13.448920">
                <ele>157.200000</ele>
                <time>2015-08-29T08:58:22Z</time>
            </trkpt>
            <trkpt lon="99.556020" lat="13.449150">
                <ele>155.800000</ele>
                <time>2015-08-29T08:58:30Z</time>
            </trkpt>
            <trkpt lon="99.556646" lat="13.449236">
                <ele>158.200000</ele>
                <time>2015-08-29T08:58:52Z</time>
            </trkpt>
            <trkpt lon="99.556647" lat="13.450314">
                <ele>171.000000</ele>
                <time>2015-08-29T09:00:10Z</time>
            </trkpt>
            <trkpt lon="99.556608" lat="13.450363">
                <ele>171.200000</ele>
                <time>2015-08-29T09:00:14Z</time>
            </trkpt>
            <trkpt lon="99.556553" lat="13.450431">
                <ele>170.800000</ele>
                <time>2015-08-29T09:00:19Z</time>
            </trkpt>
            <trkpt lon="99.556107" lat="13.450506">
                <ele>168.600000</ele>
                <time>2015-08-29T09:00:37Z</time>
            </trkpt>
            <trkpt lon="99.555504" lat="13.450973">
                <ele>171.600000</ele>
                <time>2015-08-29T09:01:03Z</time>
            </trkpt>
            <trkpt lon="99.555483" lat="13.450989">
                <ele>171.400000</ele>
                <time>2015-08-29T09:01:04Z</time>
            </trkpt>
            <trkpt lon="99.555048" lat="13.451765">
                <ele>174.800000</ele>
                <time>2015-08-29T09:01:33Z</time>
            </trkpt>
            <trkpt lon="99.555010" lat="13.451802">
                <ele>174.800000</ele>
                <time>2015-08-29T09:01:36Z</time>
            </trkpt>
            <trkpt lon="99.553438" lat="13.451824">
                <ele>177.600000</ele>
                <time>2015-08-29T09:02:31Z</time>
            </trkpt>
            <trkpt lon="99.553314" lat="13.451817">
                <ele>177.800000</ele>
                <time>2015-08-29T09:02:36Z</time>
            </trkpt>
            <trkpt lon="99.552857" lat="13.451851">
                <ele>177.800000</ele>
                <time>2015-08-29T09:02:52Z</time>
            </trkpt>
            <trkpt lon="99.552223" lat="13.451989">
                <ele>174.200000</ele>
                <time>2015-08-29T09:03:09Z</time>
            </trkpt>
            <trkpt lon="99.551829" lat="13.452303">
                <ele>173.200000</ele>
                <time>2015-08-29T09:03:20Z</time>
            </trkpt>
            <trkpt lon="99.551724" lat="13.452270">
                <ele>171.000000</ele>
                <time>2015-08-29T09:03:25Z</time>
            </trkpt>
            <trkpt lon="99.550538" lat="13.450720">
                <ele>162.200000</ele>
                <time>2015-08-29T09:04:17Z</time>
            </trkpt>
            <trkpt lon="99.550398" lat="13.450776">
                <ele>163.000000</ele>
                <time>2015-08-29T09:04:26Z</time>
            </trkpt>
            <trkpt lon="99.550058" lat="13.451127">
                <ele>158.000000</ele>
                <time>2015-08-29T09:04:40Z</time>
            </trkpt>
            <trkpt lon="99.548733" lat="13.451606">
                <ele>153.800000</ele>
                <time>2015-08-29T09:05:07Z</time>
            </trkpt>
            <trkpt lon="99.547931" lat="13.451500">
                <ele>152.600000</ele>
                <time>2015-08-29T09:05:29Z</time>
            </trkpt>
            <trkpt lon="99.547608" lat="13.451639">
                <ele>152.000000</ele>
                <time>2015-08-29T09:05:36Z</time>
            </trkpt>
            <trkpt lon="99.547340" lat="13.451836">
                <ele>155.000000</ele>
                <time>2015-08-29T09:05:51Z</time>
            </trkpt>
            <trkpt lon="99.547071" lat="13.452282">
                <ele>154.400000</ele>
                <time>2015-08-29T09:06:09Z</time>
            </trkpt>
            <trkpt lon="99.546615" lat="13.453503">
                <ele>146.400000</ele>
                <time>2015-08-29T09:06:37Z</time>
            </trkpt>
            <trkpt lon="99.547173" lat="13.454660">
                <ele>156.600000</ele>
                <time>2015-08-29T09:07:26Z</time>
            </trkpt>
            <trkpt lon="99.546924" lat="13.454987">
                <ele>157.000000</ele>
                <time>2015-08-29T09:07:45Z</time>
            </trkpt>
            <trkpt lon="99.546442" lat="13.455696">
                <ele>148.400000</ele>
                <time>2015-08-29T09:08:06Z</time>
            </trkpt>
            <trkpt lon="99.546376" lat="13.456066">
                <ele>148.000000</ele>
                <time>2015-08-29T09:08:14Z</time>
            </trkpt>
            <trkpt lon="99.546374" lat="13.456119">
                <ele>147.200000</ele>
                <time>2015-08-29T09:08:15Z</time>
            </trkpt>
            <trkpt lon="99.546490" lat="13.456374">
                <ele>151.000000</ele>
                <time>2015-08-29T09:08:23Z</time>
            </trkpt>
            <trkpt lon="99.546716" lat="13.456399">
                <ele>155.800000</ele>
                <time>2015-08-29T09:08:39Z</time>
            </trkpt>
            <trkpt lon="99.546757" lat="13.456403">
                <ele>156.400000</ele>
                <time>2015-08-29T09:08:42Z</time>
            </trkpt>
            <trkpt lon="99.546885" lat="13.456445">
                <ele>157.200000</ele>
                <time>2015-08-29T09:08:51Z</time>
            </trkpt>
            <trkpt lon="99.547374" lat="13.457138">
                <ele>149.600000</ele>
                <time>2015-08-29T09:09:10Z</time>
            </trkpt>
            <trkpt lon="99.548124" lat="13.457368">
                <ele>150.200000</ele>
                <time>2015-08-29T09:09:37Z</time>
            </trkpt>
            <trkpt lon="99.548247" lat="13.457644">
                <ele>147.200000</ele>
                <time>2015-08-29T09:09:44Z</time>
            </trkpt>
            <trkpt lon="99.547536" lat="13.458682">
                <ele>138.400000</ele>
                <time>2015-08-29T09:10:07Z</time>
            </trkpt>
            <trkpt lon="99.547421" lat="13.459443">
                <ele>137.200000</ele>
                <time>2015-08-29T09:10:24Z</time>
            </trkpt>
            <trkpt lon="99.548469" lat="13.459266">
                <ele>138.400000</ele>
                <time>2015-08-29T09:11:03Z</time>
            </trkpt>
            <trkpt lon="99.549533" lat="13.459295">
                <ele>138.600000</ele>
                <time>2015-08-29T09:11:31Z</time>
            </trkpt>
            <trkpt lon="99.551866" lat="13.459352">
                <ele>130.600000</ele>
                <time>2015-08-29T09:12:16Z</time>
            </trkpt>
            <trkpt lon="99.552044" lat="13.459247">
                <ele>130.200000</ele>
                <time>2015-08-29T09:12:22Z</time>
            </trkpt>
            <trkpt lon="99.552979" lat="13.459369">
                <ele>133.600000</ele>
                <time>2015-08-29T09:12:56Z</time>
            </trkpt>
            <trkpt lon="99.553815" lat="13.459779">
                <ele>140.400000</ele>
                <time>2015-08-29T09:13:45Z</time>
            </trkpt>
            <trkpt lon="99.553830" lat="13.459782">
                <ele>140.400000</ele>
                <time>2015-08-29T09:13:46Z</time>
            </trkpt>
            <trkpt lon="99.554494" lat="13.459518">
                <ele>145.600000</ele>
                <time>2015-08-29T09:14:30Z</time>
            </trkpt>
            <trkpt lon="99.555266" lat="13.459357">
                <ele>142.400000</ele>
                <time>2015-08-29T09:14:55Z</time>
            </trkpt>
            <trkpt lon="99.555614" lat="13.459052">
                <ele>142.800000</ele>
                <time>2015-08-29T09:15:08Z</time>
            </trkpt>
            <trkpt lon="99.556232" lat="13.458920">
                <ele>141.600000</ele>
                <time>2015-08-29T09:15:24Z</time>
            </trkpt>
            <trkpt lon="99.556847" lat="13.458824">
                <ele>139.400000</ele>
                <time>2015-08-29T09:15:38Z</time>
            </trkpt>
            <trkpt lon="99.556882" lat="13.459556">
                <ele>138.400000</ele>
                <time>2015-08-29T09:15:58Z</time>
            </trkpt>
            <trkpt lon="99.557065" lat="13.460029">
                <ele>137.400000</ele>
                <time>2015-08-29T09:16:11Z</time>
            </trkpt>
            <trkpt lon="99.557513" lat="13.461080">
                <ele>134.400000</ele>
                <time>2015-08-29T09:16:38Z</time>
            </trkpt>
            <trkpt lon="99.557418" lat="13.461879">
                <ele>137.000000</ele>
                <time>2015-08-29T09:17:02Z</time>
            </trkpt>
            <trkpt lon="99.557179" lat="13.462370">
                <ele>137.200000</ele>
                <time>2015-08-29T09:17:24Z</time>
            </trkpt>
            <trkpt lon="99.557244" lat="13.462529">
                <ele>137.000000</ele>
                <time>2015-08-29T09:17:29Z</time>
            </trkpt>
            <trkpt lon="99.557477" lat="13.463575">
                <ele>134.600000</ele>
                <time>2015-08-29T09:17:53Z</time>
            </trkpt>
            <trkpt lon="99.557376" lat="13.464055">
                <ele>134.800000</ele>
                <time>2015-08-29T09:18:04Z</time>
            </trkpt>
            <trkpt lon="99.557349" lat="13.464196">
                <ele>134.200000</ele>
                <time>2015-08-29T09:18:08Z</time>
            </trkpt>
            <trkpt lon="99.557520" lat="13.464700">
                <ele>133.800000</ele>
                <time>2015-08-29T09:18:22Z</time>
            </trkpt>
            <trkpt lon="99.557560" lat="13.466192">
                <ele>130.200000</ele>
                <time>2015-08-29T09:18:53Z</time>
            </trkpt>
            <trkpt lon="99.558009" lat="13.467121">
                <ele>127.600000</ele>
                <time>2015-08-29T09:19:19Z</time>
            </trkpt>
            <trkpt lon="99.557655" lat="13.468552">
                <ele>125.600000</ele>
                <time>2015-08-29T09:19:53Z</time>
            </trkpt>
            <trkpt lon="99.557350" lat="13.468996">
                <ele>125.800000</ele>
                <time>2015-08-29T09:20:07Z</time>
            </trkpt>
            <trkpt lon="99.558901" lat="13.469211">
                <ele>123.000000</ele>
                <time>2015-08-29T09:20:48Z</time>
            </trkpt>
            <trkpt lon="99.559051" lat="13.466622">
                <ele>128.000000</ele>
                <time>2015-08-29T09:22:13Z</time>
            </trkpt>
            <trkpt lon="99.559071" lat="13.466153">
                <ele>126.400000</ele>
                <time>2015-08-29T09:22:26Z</time>
            </trkpt>
            <trkpt lon="99.559320" lat="13.465865">
                <ele>127.600000</ele>
                <time>2015-08-29T09:22:35Z</time>
            </trkpt>
            <trkpt lon="99.559572" lat="13.465840">
                <ele>130.000000</ele>
                <time>2015-08-29T09:22:44Z</time>
            </trkpt>
            <trkpt lon="99.559789" lat="13.465851">
                <ele>130.800000</ele>
                <time>2015-08-29T09:22:51Z</time>
            </trkpt>
            <trkpt lon="99.560314" lat="13.465804">
                <ele>126.600000</ele>
                <time>2015-08-29T09:23:04Z</time>
            </trkpt>
            <trkpt lon="99.560824" lat="13.465053">
                <ele>123.400000</ele>
                <time>2015-08-29T09:23:22Z</time>
            </trkpt>
            <trkpt lon="99.561363" lat="13.464908">
                <ele>128.600000</ele>
                <time>2015-08-29T09:23:47Z</time>
            </trkpt>
            <trkpt lon="99.561378" lat="13.464894">
                <ele>128.600000</ele>
                <time>2015-08-29T09:23:48Z</time>
            </trkpt>
            <trkpt lon="99.562033" lat="13.464004">
                <ele>132.000000</ele>
                <time>2015-08-29T09:24:31Z</time>
            </trkpt>
            <trkpt lon="99.563259" lat="13.461494">
                <ele>139.800000</ele>
                <time>2015-08-29T09:25:57Z</time>
            </trkpt>
            <trkpt lon="99.563539" lat="13.460349">
                <ele>144.000000</ele>
                <time>2015-08-29T09:26:39Z</time>
            </trkpt>
            <trkpt lon="99.563310" lat="13.459653">
                <ele>150.400000</ele>
                <time>2015-08-29T09:27:16Z</time>
            </trkpt>
            <trkpt lon="99.562940" lat="13.458617">
                <ele>151.000000</ele>
                <time>2015-08-29T09:27:54Z</time>
            </trkpt>
            <trkpt lon="99.562371" lat="13.458139">
                <ele>150.000000</ele>
                <time>2015-08-29T09:28:23Z</time>
            </trkpt>
            <trkpt lon="99.562180" lat="13.457046">
                <ele>157.400000</ele>
                <time>2015-08-29T09:29:25Z</time>
            </trkpt>
            <trkpt lon="99.561910" lat="13.456606">
                <ele>155.400000</ele>
                <time>2015-08-29T09:29:42Z</time>
            </trkpt>
            <trkpt lon="99.561807" lat="13.456358">
                <ele>150.600000</ele>
                <time>2015-08-29T09:29:47Z</time>
            </trkpt>
            <trkpt lon="99.561460" lat="13.454258">
                <ele>152.600000</ele>
                <time>2015-08-29T09:31:18Z</time>
            </trkpt>
            <trkpt lon="99.561817" lat="13.453123">
                <ele>149.400000</ele>
                <time>2015-08-29T09:31:45Z</time>
            </trkpt>
            <trkpt lon="99.561603" lat="13.452338">
                <ele>149.800000</ele>
                <time>2015-08-29T09:32:07Z</time>
            </trkpt>
            <trkpt lon="99.561777" lat="13.451811">
                <ele>149.800000</ele>
                <time>2015-08-29T09:32:27Z</time>
            </trkpt>
            <trkpt lon="99.561819" lat="13.451445">
                <ele>146.200000</ele>
                <time>2015-08-29T09:32:40Z</time>
            </trkpt>
            <trkpt lon="99.561715" lat="13.451309">
                <ele>143.400000</ele>
                <time>2015-08-29T09:32:49Z</time>
            </trkpt>
            <trkpt lon="99.561067" lat="13.451644">
                <ele>141.600000</ele>
                <time>2015-08-29T09:33:08Z</time>
            </trkpt>
            <trkpt lon="99.561007" lat="13.451571">
                <ele>143.000000</ele>
                <time>2015-08-29T09:33:15Z</time>
            </trkpt>
            <trkpt lon="99.561621" lat="13.451102">
                <ele>148.000000</ele>
                <time>2015-08-29T09:33:56Z</time>
            </trkpt>
            <trkpt lon="99.561672" lat="13.450665">
                <ele>150.600000</ele>
                <time>2015-08-29T09:34:20Z</time>
            </trkpt>
            <trkpt lon="99.562022" lat="13.449001">
                <ele>156.800000</ele>
                <time>2015-08-29T09:35:27Z</time>
            </trkpt>
            <trkpt lon="99.563177" lat="13.449114">
                <ele>159.000000</ele>
                <time>2015-08-29T09:36:03Z</time>
            </trkpt>
            <trkpt lon="99.563774" lat="13.449325">
                <ele>164.800000</ele>
                <time>2015-08-29T09:36:36Z</time>
            </trkpt>
            <trkpt lon="99.563828" lat="13.449317">
                <ele>164.800000</ele>
                <time>2015-08-29T09:36:39Z</time>
            </trkpt>
            <trkpt lon="99.564089" lat="13.449207">
                <ele>161.000000</ele>
                <time>2015-08-29T09:36:46Z</time>
            </trkpt>
            <trkpt lon="99.564574" lat="13.448712">
                <ele>155.600000</ele>
                <time>2015-08-29T09:36:56Z</time>
            </trkpt>
            <trkpt lon="99.564667" lat="13.448600">
                <ele>154.000000</ele>
                <time>2015-08-29T09:36:58Z</time>
            </trkpt>
            <trkpt lon="99.565195" lat="13.447522">
                <ele>152.400000</ele>
                <time>2015-08-29T09:37:16Z</time>
            </trkpt>
            <trkpt lon="99.565864" lat="13.447205">
                <ele>159.400000</ele>
                <time>2015-08-29T09:37:37Z</time>
            </trkpt>
            <trkpt lon="99.566258" lat="13.446820">
                <ele>157.000000</ele>
                <time>2015-08-29T09:37:51Z</time>
            </trkpt>
            <trkpt lon="99.567748" lat="13.446370">
                <ele>158.400000</ele>
                <time>2015-08-29T09:38:20Z</time>
            </trkpt>
            <trkpt lon="99.568209" lat="13.446316">
                <ele>156.600000</ele>
                <time>2015-08-29T09:38:31Z</time>
            </trkpt>
            <trkpt lon="99.570572" lat="13.446665">
                <ele>154.600000</ele>
                <time>2015-08-29T09:39:17Z</time>
            </trkpt>
            <trkpt lon="99.572261" lat="13.447123">
                <ele>145.400000</ele>
                <time>2015-08-29T09:39:46Z</time>
            </trkpt>
            <trkpt lon="99.573071" lat="13.447575">
                <ele>146.800000</ele>
                <time>2015-08-29T09:40:02Z</time>
            </trkpt>
            <trkpt lon="99.573276" lat="13.447636">
                <ele>143.200000</ele>
                <time>2015-08-29T09:40:05Z</time>
            </trkpt>
            <trkpt lon="99.574932" lat="13.447410">
                <ele>139.000000</ele>
                <time>2015-08-29T09:40:28Z</time>
            </trkpt>
            <trkpt lon="99.575767" lat="13.447872">
                <ele>140.200000</ele>
                <time>2015-08-29T09:40:45Z</time>
            </trkpt>
            <trkpt lon="99.575950" lat="13.447821">
                <ele>140.400000</ele>
                <time>2015-08-29T09:40:55Z</time>
            </trkpt>
            <trkpt lon="99.577624" lat="13.447603">
                <ele>136.600000</ele>
                <time>2015-08-29T09:48:17Z</time>
            </trkpt>
            <trkpt lon="99.578091" lat="13.445233">
                <ele>132.000000</ele>
                <time>2015-08-29T09:49:08Z</time>
            </trkpt>
            <trkpt lon="99.578094" lat="13.445567">
                <ele>131.200000</ele>
                <time>2015-08-29T09:49:23Z</time>
            </trkpt>
            <trkpt lon="99.579290" lat="13.445772">
                <ele>129.600000</ele>
                <time>2015-08-29T09:50:05Z</time>
            </trkpt>
            <trkpt lon="99.579719" lat="13.446197">
                <ele>130.800000</ele>
                <time>2015-08-29T09:50:27Z</time>
            </trkpt>
            <trkpt lon="99.580185" lat="13.446502">
                <ele>129.400000</ele>
                <time>2015-08-29T09:50:48Z</time>
            </trkpt>
            <trkpt lon="99.580151" lat="13.447223">
                <ele>129.200000</ele>
                <time>2015-08-29T09:51:20Z</time>
            </trkpt>
            <trkpt lon="99.580498" lat="13.447669">
                <ele>135.400000</ele>
                <time>2015-08-29T09:51:57Z</time>
            </trkpt>
            <trkpt lon="99.581057" lat="13.449291">
                <ele>130.200000</ele>
                <time>2015-08-29T09:52:40Z</time>
            </trkpt>
            <trkpt lon="99.581268" lat="13.449585">
                <ele>128.600000</ele>
                <time>2015-08-29T09:52:47Z</time>
            </trkpt>
            <trkpt lon="99.582165" lat="13.449692">
                <ele>129.200000</ele>
                <time>2015-08-29T09:53:06Z</time>
            </trkpt>
            <trkpt lon="99.582455" lat="13.449952">
                <ele>133.400000</ele>
                <time>2015-08-29T09:53:21Z</time>
            </trkpt>
            <trkpt lon="99.582458" lat="13.449974">
                <ele>133.400000</ele>
                <time>2015-08-29T09:53:22Z</time>
            </trkpt>
            <trkpt lon="99.582475" lat="13.450192">
                <ele>133.200000</ele>
                <time>2015-08-29T09:53:29Z</time>
            </trkpt>
            <trkpt lon="99.582523" lat="13.451157">
                <ele>126.600000</ele>
                <time>2015-08-29T09:53:48Z</time>
            </trkpt>
            <trkpt lon="99.582718" lat="13.451571">
                <ele>129.400000</ele>
                <time>2015-08-29T09:53:57Z</time>
            </trkpt>
            <trkpt lon="99.583143" lat="13.451648">
                <ele>130.800000</ele>
                <time>2015-08-29T09:54:09Z</time>
            </trkpt>
            <trkpt lon="99.583358" lat="13.451436">
                <ele>134.800000</ele>
                <time>2015-08-29T09:54:35Z</time>
            </trkpt>
            <trkpt lon="99.583448" lat="13.451368">
                <ele>135.600000</ele>
                <time>2015-08-29T09:54:44Z</time>
            </trkpt>
            <trkpt lon="99.583673" lat="13.451131">
                <ele>135.600000</ele>
                <time>2015-08-29T09:54:59Z</time>
            </trkpt>
            <trkpt lon="99.585032" lat="13.450760">
                <ele>138.800000</ele>
                <time>2015-08-29T09:55:55Z</time>
            </trkpt>
            <trkpt lon="99.585172" lat="13.450722">
                <ele>138.600000</ele>
                <time>2015-08-29T09:56:00Z</time>
            </trkpt>
            <trkpt lon="99.585398" lat="13.450426">
                <ele>140.800000</ele>
                <time>2015-08-29T09:56:18Z</time>
            </trkpt>
            <trkpt lon="99.585926" lat="13.450512">
                <ele>142.000000</ele>
                <time>2015-08-29T09:56:37Z</time>
            </trkpt>
            <trkpt lon="99.586354" lat="13.450487">
                <ele>140.200000</ele>
                <time>2015-08-29T09:56:50Z</time>
            </trkpt>
            <trkpt lon="99.586377" lat="13.451057">
                <ele>136.000000</ele>
                <time>2015-08-29T09:57:05Z</time>
            </trkpt>
            <trkpt lon="99.586863" lat="13.451884">
                <ele>132.400000</ele>
                <time>2015-08-29T09:57:26Z</time>
            </trkpt>
            <trkpt lon="99.586905" lat="13.451958">
                <ele>131.800000</ele>
                <time>2015-08-29T09:57:28Z</time>
            </trkpt>
            <trkpt lon="99.587427" lat="13.452497">
                <ele>129.200000</ele>
                <time>2015-08-29T09:57:43Z</time>
            </trkpt>
            <trkpt lon="99.588129" lat="13.452831">
                <ele>134.000000</ele>
                <time>2015-08-29T09:58:09Z</time>
            </trkpt>
            <trkpt lon="99.588658" lat="13.452960">
                <ele>131.200000</ele>
                <time>2015-08-29T09:58:28Z</time>
            </trkpt>
            <trkpt lon="99.587996" lat="13.454299">
                <ele>124.600000</ele>
                <time>2015-08-29T09:58:57Z</time>
            </trkpt>
            <trkpt lon="99.587670" lat="13.454505">
                <ele>125.000000</ele>
                <time>2015-08-29T09:59:06Z</time>
            </trkpt>
            <trkpt lon="99.588407" lat="13.455764">
                <ele>123.800000</ele>
                <time>2015-08-29T09:59:30Z</time>
            </trkpt>
            <trkpt lon="99.588660" lat="13.456449">
                <ele>124.800000</ele>
                <time>2015-08-29T09:59:42Z</time>
            </trkpt>
            <trkpt lon="99.588987" lat="13.457345">
                <ele>122.000000</ele>
                <time>2015-08-29T09:59:56Z</time>
            </trkpt>
            <trkpt lon="99.589410" lat="13.457930">
                <ele>123.600000</ele>
                <time>2015-08-29T10:00:06Z</time>
            </trkpt>
            <trkpt lon="99.590357" lat="13.458524">
                <ele>125.600000</ele>
                <time>2015-08-29T10:00:23Z</time>
            </trkpt>
            <trkpt lon="99.591176" lat="13.458703">
                <ele>126.000000</ele>
                <time>2015-08-29T10:00:38Z</time>
            </trkpt>
            <trkpt lon="99.591714" lat="13.458487">
                <ele>128.000000</ele>
                <time>2015-08-29T10:01:09Z</time>
            </trkpt>
            <trkpt lon="99.592331" lat="13.457904">
                <ele>132.000000</ele>
                <time>2015-08-29T10:01:45Z</time>
            </trkpt>
            <trkpt lon="99.592486" lat="13.457045">
                <ele>134.200000</ele>
                <time>2015-08-29T10:02:24Z</time>
            </trkpt>
            <trkpt lon="99.592488" lat="13.456982">
                <ele>134.200000</ele>
                <time>2015-08-29T10:02:28Z</time>
            </trkpt>
            <trkpt lon="99.592415" lat="13.457618">
                <ele>132.200000</ele>
                <time>2015-08-29T10:03:08Z</time>
            </trkpt>
            <trkpt lon="99.593037" lat="13.457856">
                <ele>137.800000</ele>
                <time>2015-08-29T10:03:48Z</time>
            </trkpt>
            <trkpt lon="99.593126" lat="13.458003">
                <ele>140.200000</ele>
                <time>2015-08-29T10:04:01Z</time>
            </trkpt>
            <trkpt lon="99.593619" lat="13.458603">
                <ele>132.400000</ele>
                <time>2015-08-29T10:04:22Z</time>
            </trkpt>
            <trkpt lon="99.594025" lat="13.458716">
                <ele>138.000000</ele>
                <time>2015-08-29T10:04:41Z</time>
            </trkpt>
            <trkpt lon="99.594116" lat="13.458811">
                <ele>136.200000</ele>
                <time>2015-08-29T10:04:46Z</time>
            </trkpt>
            <trkpt lon="99.594066" lat="13.460041">
                <ele>130.400000</ele>
                <time>2015-08-29T10:05:21Z</time>
            </trkpt>
            <trkpt lon="99.594206" lat="13.460523">
                <ele>130.600000</ele>
                <time>2015-08-29T10:05:30Z</time>
            </trkpt>
            <trkpt lon="99.594671" lat="13.461013">
                <ele>127.800000</ele>
                <time>2015-08-29T10:05:41Z</time>
            </trkpt>
            <trkpt lon="99.595072" lat="13.461197">
                <ele>131.000000</ele>
                <time>2015-08-29T10:05:50Z</time>
            </trkpt>
            <trkpt lon="99.595246" lat="13.461286">
                <ele>131.000000</ele>
                <time>2015-08-29T10:05:55Z</time>
            </trkpt>
            <trkpt lon="99.595711" lat="13.461478">
                <ele>129.200000</ele>
                <time>2015-08-29T10:06:05Z</time>
            </trkpt>
            <trkpt lon="99.595812" lat="13.461657">
                <ele>129.000000</ele>
                <time>2015-08-29T10:06:10Z</time>
            </trkpt>
            <trkpt lon="99.595896" lat="13.462137">
                <ele>126.200000</ele>
                <time>2015-08-29T10:06:22Z</time>
            </trkpt>
            <trkpt lon="99.596550" lat="13.462260">
                <ele>124.600000</ele>
                <time>2015-08-29T10:06:39Z</time>
            </trkpt>
            <trkpt lon="99.597313" lat="13.462231">
                <ele>123.400000</ele>
                <time>2015-08-29T10:06:55Z</time>
            </trkpt>
            <trkpt lon="99.598012" lat="13.461901">
                <ele>122.000000</ele>
                <time>2015-08-29T10:07:10Z</time>
            </trkpt>
            <trkpt lon="99.598028" lat="13.460994">
                <ele>126.800000</ele>
                <time>2015-08-29T10:07:45Z</time>
            </trkpt>
            <trkpt lon="99.597721" lat="13.460587">
                <ele>128.200000</ele>
                <time>2015-08-29T10:08:04Z</time>
            </trkpt>
            <trkpt lon="99.597781" lat="13.459813">
                <ele>131.200000</ele>
                <time>2015-08-29T10:08:37Z</time>
            </trkpt>
            <trkpt lon="99.597949" lat="13.459658">
                <ele>132.600000</ele>
                <time>2015-08-29T10:08:47Z</time>
            </trkpt>
            <trkpt lon="99.598161" lat="13.459591">
                <ele>131.000000</ele>
                <time>2015-08-29T10:08:54Z</time>
            </trkpt>
            <trkpt lon="99.598255" lat="13.459219">
                <ele>134.600000</ele>
                <time>2015-08-29T10:09:07Z</time>
            </trkpt>
            <trkpt lon="99.598281" lat="13.459096">
                <ele>133.000000</ele>
                <time>2015-08-29T10:09:14Z</time>
            </trkpt>
            <trkpt lon="99.598665" lat="13.458971">
                <ele>131.600000</ele>
                <time>2015-08-29T10:09:25Z</time>
            </trkpt>
            <trkpt lon="99.598940" lat="13.458839">
                <ele>127.600000</ele>
                <time>2015-08-29T10:09:31Z</time>
            </trkpt>
            <trkpt lon="99.599673" lat="13.458740">
                <ele>123.200000</ele>
                <time>2015-08-29T10:09:46Z</time>
            </trkpt>
            <trkpt lon="99.600285" lat="13.458452">
                <ele>121.200000</ele>
                <time>2015-08-29T10:10:08Z</time>
            </trkpt>
            <trkpt lon="99.600467" lat="13.458477">
                <ele>119.600000</ele>
                <time>2015-08-29T10:10:12Z</time>
            </trkpt>
            <trkpt lon="99.601232" lat="13.459077">
                <ele>117.200000</ele>
                <time>2015-08-29T10:10:35Z</time>
            </trkpt>
            <trkpt lon="99.601570" lat="13.459859">
                <ele>114.800000</ele>
                <time>2015-08-29T10:10:56Z</time>
            </trkpt>
            <trkpt lon="99.603047" lat="13.458893">
                <ele>114.600000</ele>
                <time>2015-08-29T10:11:37Z</time>
            </trkpt>
            <trkpt lon="99.603735" lat="13.458184">
                <ele>114.600000</ele>
                <time>2015-08-29T10:11:57Z</time>
            </trkpt>
            <trkpt lon="99.603856" lat="13.457833">
                <ele>113.000000</ele>
                <time>2015-08-29T10:12:04Z</time>
            </trkpt>
            <trkpt lon="99.603768" lat="13.457439">
                <ele>116.400000</ele>
                <time>2015-08-29T10:12:15Z</time>
            </trkpt>
            <trkpt lon="99.603712" lat="13.457334">
                <ele>116.600000</ele>
                <time>2015-08-29T10:12:19Z</time>
            </trkpt>
            <trkpt lon="99.603717" lat="13.457178">
                <ele>116.400000</ele>
                <time>2015-08-29T10:12:24Z</time>
            </trkpt>
            <trkpt lon="99.603887" lat="13.456432">
                <ele>116.200000</ele>
                <time>2015-08-29T10:12:43Z</time>
            </trkpt>
            <trkpt lon="99.604186" lat="13.456197">
                <ele>115.600000</ele>
                <time>2015-08-29T10:12:53Z</time>
            </trkpt>
            <trkpt lon="99.604392" lat="13.456249">
                <ele>115.800000</ele>
                <time>2015-08-29T10:12:59Z</time>
            </trkpt>
            <trkpt lon="99.604565" lat="13.455899">
                <ele>117.800000</ele>
                <time>2015-08-29T10:13:15Z</time>
            </trkpt>
            <trkpt lon="99.604799" lat="13.455740">
                <ele>119.000000</ele>
                <time>2015-08-29T10:13:24Z</time>
            </trkpt>
            <trkpt lon="99.605479" lat="13.455893">
                <ele>117.600000</ele>
                <time>2015-08-29T10:13:40Z</time>
            </trkpt>
            <trkpt lon="99.606034" lat="13.455829">
                <ele>118.200000</ele>
                <time>2015-08-29T10:13:51Z</time>
            </trkpt>
            <trkpt lon="99.606994" lat="13.455703">
                <ele>117.200000</ele>
                <time>2015-08-29T10:14:09Z</time>
            </trkpt>
            <trkpt lon="99.608540" lat="13.456058">
                <ele>117.800000</ele>
                <time>2015-08-29T10:14:37Z</time>
            </trkpt>
            <trkpt lon="99.609215" lat="13.456100">
                <ele>116.600000</ele>
                <time>2015-08-29T10:14:49Z</time>
            </trkpt>
            <trkpt lon="99.609842" lat="13.455684">
                <ele>116.000000</ele>
                <time>2015-08-29T10:15:03Z</time>
            </trkpt>
            <trkpt lon="99.610982" lat="13.453636">
                <ele>117.600000</ele>
                <time>2015-08-29T10:15:48Z</time>
            </trkpt>
            <trkpt lon="99.611060" lat="13.453105">
                <ele>117.000000</ele>
                <time>2015-08-29T10:15:58Z</time>
            </trkpt>
            <trkpt lon="99.611551" lat="13.452304">
                <ele>116.200000</ele>
                <time>2015-08-29T10:16:14Z</time>
            </trkpt>
            <trkpt lon="99.612035" lat="13.451927">
                <ele>114.000000</ele>
                <time>2015-08-29T10:16:25Z</time>
            </trkpt>
            <trkpt lon="99.613008" lat="13.451552">
                <ele>112.400000</ele>
                <time>2015-08-29T10:16:41Z</time>
            </trkpt>
            <trkpt lon="99.613573" lat="13.451337">
                <ele>110.600000</ele>
                <time>2015-08-29T10:16:50Z</time>
            </trkpt>
            <trkpt lon="99.614155" lat="13.450888">
                <ele>110.600000</ele>
                <time>2015-08-29T10:17:01Z</time>
            </trkpt>
            <trkpt lon="99.614206" lat="13.450858">
                <ele>110.000000</ele>
                <time>2015-08-29T10:17:02Z</time>
            </trkpt>
            <trkpt lon="99.614465" lat="13.450785">
                <ele>110.200000</ele>
                <time>2015-08-29T10:17:07Z</time>
            </trkpt>
            <trkpt lon="99.614581" lat="13.450901">
                <ele>111.200000</ele>
                <time>2015-08-29T10:17:11Z</time>
            </trkpt>
            <trkpt lon="99.615048" lat="13.451481">
                <ele>108.000000</ele>
                <time>2015-08-29T10:17:25Z</time>
            </trkpt>
            <trkpt lon="99.615420" lat="13.451736">
                <ele>109.000000</ele>
                <time>2015-08-29T10:17:33Z</time>
            </trkpt>
            <trkpt lon="99.615734" lat="13.451839">
                <ele>108.000000</ele>
                <time>2015-08-29T10:17:40Z</time>
            </trkpt>
            <trkpt lon="99.615969" lat="13.449342">
                <ele>107.200000</ele>
                <time>2015-08-29T10:18:45Z</time>
            </trkpt>
            <trkpt lon="99.615994" lat="13.449761">
                <ele>107.200000</ele>
                <time>2015-08-29T10:19:01Z</time>
            </trkpt>
            <trkpt lon="99.615967" lat="13.449399">
                <ele>107.000000</ele>
                <time>2015-08-29T10:19:21Z</time>
            </trkpt>
            <trkpt lon="99.616051" lat="13.449758">
                <ele>107.400000</ele>
                <time>2015-08-29T10:19:36Z</time>
            </trkpt>
            <trkpt lon="99.616330" lat="13.449710">
                <ele>106.800000</ele>
                <time>2015-08-29T10:19:54Z</time>
            </trkpt>
            <trkpt lon="99.616030" lat="13.449622">
                <ele>106.400000</ele>
                <time>2015-08-29T10:20:11Z</time>
            </trkpt>
            <trkpt lon="99.616002" lat="13.449444">
                <ele>107.400000</ele>
                <time>2015-08-29T10:20:20Z</time>
            </trkpt>
            <trkpt lon="99.616455" lat="13.449463">
                <ele>107.600000</ele>
                <time>2015-08-29T10:21:11Z</time>
            </trkpt>
            <trkpt lon="99.620228" lat="13.449813">
                <ele>105.600000</ele>
                <time>2015-08-29T10:22:08Z</time>
            </trkpt>
            <trkpt lon="99.621208" lat="13.449902">
                <ele>104.200000</ele>
                <time>2015-08-29T10:22:23Z</time>
            </trkpt>
            <trkpt lon="99.623239" lat="13.450243">
                <ele>104.600000</ele>
                <time>2015-08-29T10:22:52Z</time>
            </trkpt>
            <trkpt lon="99.624486" lat="13.450642">
                <ele>108.000000</ele>
                <time>2015-08-29T10:23:17Z</time>
            </trkpt>
            <trkpt lon="99.625102" lat="13.450860">
                <ele>106.200000</ele>
                <time>2015-08-29T10:23:28Z</time>
            </trkpt>
            <trkpt lon="99.625224" lat="13.451031">
                <ele>104.600000</ele>
                <time>2015-08-29T10:23:31Z</time>
            </trkpt>
            <trkpt lon="99.624770" lat="13.454327">
                <ele>96.400000</ele>
                <time>2015-08-29T10:24:13Z</time>
            </trkpt>
            <trkpt lon="99.625083" lat="13.457521">
                <ele>94.800000</ele>
                <time>2015-08-29T10:24:53Z</time>
            </trkpt>
            <trkpt lon="99.625103" lat="13.457679">
                <ele>94.000000</ele>
                <time>2015-08-29T10:24:55Z</time>
            </trkpt>
            <trkpt lon="99.625372" lat="13.457954">
                <ele>95.400000</ele>
                <time>2015-08-29T10:25:00Z</time>
            </trkpt>
            <trkpt lon="99.626049" lat="13.458297">
                <ele>95.200000</ele>
                <time>2015-08-29T10:25:10Z</time>
            </trkpt>
            <trkpt lon="99.625399" lat="13.460160">
                <ele>96.600000</ele>
                <time>2015-08-29T10:25:38Z</time>
            </trkpt>
            <trkpt lon="99.625512" lat="13.460311">
                <ele>97.000000</ele>
                <time>2015-08-29T10:25:42Z</time>
            </trkpt>
            <trkpt lon="99.625699" lat="13.460178">
                <ele>96.800000</ele>
                <time>2015-08-29T10:25:47Z</time>
            </trkpt>
            <trkpt lon="99.625846" lat="13.459830">
                <ele>97.200000</ele>
                <time>2015-08-29T10:26:01Z</time>
            </trkpt>
        </trkseg>
    </trk>
</gpx>